KROC

Greater Rochester International Airport

Rochester, New York, USA
METAR KROC 191054Z 02010KT 10SM OVC016 19/16 A2998 RMK AO2 SLP151 T01890161 $
Observed Flight Rules
Sep-19 @ 10:54 UTC (46 minutes ago) Marginal Visual Flight Rules
Wind Visibility Clouds
20° at 10 knots 10 miles
  • Overcast at 1,600' AGL
Temperatures Readings
Current 19°C / 66°F
Dewpoint 16°C / 61°F
Humidity 83%
Altimeter 29.98" Hg
Pressure 1015.1 hPa
Elevation 178
METAR KROC 191054Z 02010KT 10SM OVC016 19/16 A2998 RMK AO2 SLP151 T01890161 $
Observed Flight Rules
Sep-19 @ 10:54 UTC
(46 minutes ago)
MVFR
Wind Visibility
20° at 10 knots 10 miles
Clouds
  • Overcast at 1,600' AGL
Temperature Dewpoint
19°C / 66°F 16°C / 61°F
Humidity Altimeter Pressure
83% 29.98" Hg 1015.1 hPa